createdAt,value
2018-02-22T00:00:08.153Z,-1.00
2018-02-22T00:02:38.544Z,-1.10
2018-02-22T00:05:08.798Z,-1.10
2018-02-22T00:07:39.163Z,-1.20
2018-02-22T00:10:09.526Z,-1.20
2018-02-22T00:12:40.238Z,-1.20
2018-02-22T00:15:11.317Z,-1.20
2018-02-22T00:17:41.599Z,-1.20
2018-02-22T00:20:11.863Z,-1.20
2018-02-22T00:22:42.119Z,-1.20
2018-02-22T00:25:12.608Z,-1.20
2018-02-22T00:27:42.936Z,-1.30
2018-02-22T00:30:13.078Z,-1.30
2018-02-22T00:32:43.203Z,-1.30
2018-02-22T00:35:13.158Z,-1.30
2018-02-22T00:37:43.416Z,-1.30
2018-02-22T00:40:14.349Z,-1.40
2018-02-22T00:42:44.628Z,-1.40
2018-02-22T00:45:16.377Z,-1.40
2018-02-22T00:47:46.345Z,-1.40
2018-02-22T00:50:16.674Z,-1.40
2018-02-22T00:52:46.815Z,-1.40
2018-02-22T00:55:17.527Z,-1.50
2018-02-22T00:57:47.645Z,-1.50
2018-02-22T01:00:17.874Z,-1.50
2018-02-22T01:02:48.244Z,-1.50
2018-02-22T01:05:18.848Z,-1.60
2018-02-22T01:07:49.235Z,-1.50
2018-02-22T01:10:20.026Z,-1.50
2018-02-22T01:12:50.314Z,-1.50
2018-02-22T01:15:20.319Z,-1.50
2018-02-22T01:17:50.558Z,-1.50
2018-02-22T01:20:20.754Z,-1.50
2018-02-22T01:22:50.862Z,-1.50
2018-02-22T01:25:21.258Z,-1.40
2018-02-22T01:27:51.698Z,-1.50
2018-02-22T01:30:22.202Z,-1.40
2018-02-22T01:32:53.807Z,-1.50
2018-02-22T01:35:24.350Z,-1.50
2018-02-22T01:37:54.448Z,-1.40
2018-02-22T01:40:24.889Z,-1.40
2018-02-22T01:42:54.894Z,-1.40
2018-02-22T01:45:25.180Z,-1.50
2018-02-22T01:47:57.191Z,-1.50
2018-02-22T01:50:28.090Z,-1.50
2018-02-22T01:53:06.655Z,-1.50
2018-02-22T01:55:43.116Z,-1.50
2018-02-22T01:58:19.326Z,-1.50
2018-02-22T02:00:58.002Z,-1.50
2018-02-22T02:03:36.586Z,-1.60
2018-02-22T02:06:16.970Z,-1.50
2018-02-22T02:11:52.532Z,-1.50
2018-02-22T02:14:43.696Z,-1.50
2018-02-22T02:17:28.076Z,-1.60
2018-02-22T02:20:11.856Z,-1.60
2018-02-22T02:22:52.402Z,-1.80
2018-02-22T02:25:42.957Z,-1.70
2018-02-22T02:28:52.331Z,-1.80
2018-02-22T02:31:37.973Z,-1.80
2018-02-22T02:34:22.744Z,-1.80
2018-02-22T02:37:05.394Z,-1.80
2018-02-22T02:39:51.821Z,-1.70
2018-02-22T02:42:41.173Z,-1.60
2018-02-22T02:45:29.769Z,-1.70
2018-02-22T02:48:13.978Z,-1.80
2018-02-22T02:50:57.048Z,-1.80
2018-02-22T02:53:31.222Z,-1.80
2018-02-22T02:56:09.811Z,-1.90
2018-02-22T02:58:49.720Z,-1.90
2018-02-22T03:01:29.752Z,-1.80
2018-02-22T03:04:10.388Z,-1.80
2018-02-22T03:06:47.505Z,-1.70
2018-02-22T03:09:27.721Z,-1.80
2018-02-22T03:11:58.107Z,-1.70
2018-02-22T03:14:34.070Z,-1.80
2018-02-22T03:17:09.884Z,-1.80
2018-02-22T03:19:40.190Z,-1.80
2018-02-22T03:22:22.059Z,-1.80
2018-02-22T03:25:03.738Z,-1.90
2018-02-22T03:27:47.599Z,-1.90
2018-02-22T03:30:24.565Z,-1.90
2018-02-22T03:33:02.716Z,-1.90
2018-02-22T03:35:38.709Z,-1.80
2018-02-22T03:38:20.017Z,-1.80
2018-02-22T03:40:55.410Z,-1.80
2018-02-22T03:43:31.587Z,-1.90
2018-02-22T03:46:08.390Z,-1.90
2018-02-22T03:48:46.546Z,-1.90
2018-02-22T03:51:21.338Z,-1.90
2018-02-22T03:53:59.188Z,-1.90
2018-02-22T03:56:34.139Z,-1.90
2018-02-22T03:59:10.477Z,-1.90
2018-02-22T04:01:50.754Z,-1.90
2018-02-22T04:04:22.829Z,-1.90
2018-02-22T04:06:58.252Z,-1.90
2018-02-22T04:09:32.415Z,-2.00
2018-02-22T04:12:09.068Z,-2.10
2018-02-22T04:14:50.930Z,-2.10
2018-02-22T04:17:30.655Z,-2.10
2018-02-22T04:20:06.509Z,-2.10
2018-02-22T04:22:40.672Z,-2.10
2018-02-22T04:25:20.409Z,-2.10
2018-02-22T04:27:59.918Z,-2.20
2018-02-22T04:30:38.041Z,-2.10
2018-02-22T04:33:13.917Z,-2.10
2018-02-22T04:35:50.231Z,-2.10
2018-02-22T04:38:26.093Z,-2.10
2018-02-22T04:41:03.024Z,-2.10
2018-02-22T04:43:42.703Z,-2.10
2018-02-22T04:46:16.909Z,-2.10
2018-02-22T04:48:50.200Z,-2.20
2018-02-22T04:51:27.343Z,-2.20
2018-02-22T04:54:02.274Z,-2.20
2018-02-22T04:56:32.665Z,-2.30
2018-02-22T04:59:07.401Z,-2.30
2018-02-22T05:01:46.276Z,-2.40
2018-02-22T05:04:24.340Z,-2.40
2018-02-22T05:06:55.476Z,-2.40
2018-02-22T05:09:29.885Z,-2.40
2018-02-22T05:12:07.289Z,-2.40
2018-02-22T05:14:48.786Z,-2.50
2018-02-22T05:17:26.778Z,-2.50
2018-02-22T05:20:00.509Z,-2.50
2018-02-22T05:22:38.464Z,-2.50
2018-02-22T05:25:15.082Z,-2.50
2018-02-22T05:27:49.502Z,-2.50
2018-02-22T05:30:26.600Z,-2.60
2018-02-22T05:33:02.217Z,-2.60
2018-02-22T05:35:37.777Z,-2.60
2018-02-22T05:38:10.054Z,-2.60
2018-02-22T05:40:40.982Z,-2.60
2018-02-22T05:43:11.163Z,-2.60
2018-02-22T05:45:45.965Z,-2.60
2018-02-22T05:48:20.238Z,-2.70
2018-02-22T05:50:54.562Z,-2.70
2018-02-22T05:53:28.914Z,-2.70
2018-02-22T05:56:00.195Z,-2.80
2018-02-22T05:58:31.059Z,-2.80
2018-02-22T06:01:07.171Z,-2.80
2018-02-22T06:03:38.984Z,-2.80
2018-02-22T06:06:09.107Z,-2.90
2018-02-22T06:08:39.057Z,-2.80
2018-02-22T06:11:09.543Z,-2.80
2018-02-22T06:13:39.588Z,-2.80
2018-02-22T06:16:09.628Z,-2.80
2018-02-22T06:18:39.677Z,-2.80
2018-02-22T06:21:10.470Z,-2.90
2018-02-22T06:23:40.487Z,-2.90
2018-02-22T06:26:10.594Z,-2.90
2018-02-22T06:28:40.698Z,-3.00
2018-02-22T06:31:10.766Z,-3.00
2018-02-22T06:33:41.194Z,-2.90
2018-02-22T06:36:11.241Z,-3.00
2018-02-22T06:38:41.301Z,-3.00
2018-02-22T06:41:11.349Z,-3.00
2018-02-22T06:43:42.188Z,-3.00
2018-02-22T06:46:13.076Z,-3.00
2018-02-22T06:48:43.635Z,-3.00
2018-02-22T06:51:13.731Z,-3.00
2018-02-22T06:53:43.778Z,-3.00
2018-02-22T06:56:13.944Z,-3.00
2018-02-22T06:58:44.123Z,-3.00
2018-02-22T07:01:14.175Z,-3.00
2018-02-22T07:03:44.515Z,-2.90
2018-02-22T07:06:14.615Z,-2.90
2018-02-22T07:08:44.726Z,-2.90
2018-02-22T07:11:14.835Z,-2.80
2018-02-22T07:13:45.171Z,-2.90
2018-02-22T07:16:15.274Z,-2.80
2018-02-22T07:18:45.270Z,-2.80
2018-02-22T07:21:15.723Z,-2.70
2018-02-22T07:23:46.164Z,-2.60
2018-02-22T07:26:16.446Z,-2.60
2018-02-22T07:28:47.525Z,-2.40
2018-02-22T07:31:17.544Z,-2.40
2018-02-22T07:33:47.678Z,-2.20
2018-02-22T07:36:17.790Z,-2.10
2018-02-22T07:38:51.259Z,-1.80
2018-02-22T07:41:22.227Z,-1.20
2018-02-22T07:43:52.547Z,-1.20
2018-02-22T07:46:22.544Z,-0.90
2018-02-22T07:48:52.615Z,-0.40
2018-02-22T07:51:22.975Z,0.00
2018-02-22T07:53:53.001Z,0.60
2018-02-22T07:56:23.823Z,1.20
2018-02-22T07:58:54.665Z,1.60
2018-02-22T08:01:25.439Z,1.70
2018-02-22T08:03:55.427Z,1.70
2018-02-22T08:06:25.721Z,2.00
2018-02-22T08:08:56.490Z,2.90
2018-02-22T08:12:56.160Z,2.80
2018-02-22T08:15:27.002Z,3.60
2018-02-22T08:17:57.030Z,3.60
2018-02-22T08:20:27.462Z,3.80
2018-02-22T08:22:58.300Z,4.40
2018-02-22T08:25:29.128Z,4.50
2018-02-22T08:28:00.348Z,4.70
2018-02-22T08:30:30.412Z,4.60
2018-02-22T08:33:00.452Z,5.00
2018-02-22T08:35:30.555Z,5.30
2018-02-22T08:38:00.883Z,5.70
2018-02-22T08:40:30.947Z,6.10
2018-02-22T08:43:01.008Z,6.40
2018-02-22T08:45:31.173Z,6.50
2018-02-22T08:48:01.244Z,6.50
2018-02-22T08:50:31.333Z,6.60
2018-02-22T08:53:01.710Z,6.60
2018-02-22T08:55:31.794Z,6.60
2018-02-22T08:58:02.700Z,6.60
2018-02-22T09:00:33.139Z,6.50
2018-02-22T09:03:03.915Z,6.80
2018-02-22T09:05:33.928Z,7.20
2018-02-22T09:08:04.272Z,7.60
2018-02-22T09:10:34.402Z,7.70
2018-02-22T09:13:04.519Z,7.60
2018-02-22T09:15:34.720Z,7.20
2018-02-22T09:18:04.954Z,7.20
2018-02-22T09:20:35.115Z,7.40
2018-02-22T09:23:06.295Z,7.60
2018-02-22T09:25:36.324Z,7.60
2018-02-22T09:28:06.465Z,7.40
2018-02-22T09:30:36.531Z,7.60
2018-02-22T09:33:07.644Z,6.50
2018-02-22T09:35:38.453Z,5.90
2018-02-22T09:38:08.913Z,5.90
2018-02-22T09:40:39.095Z,5.20
2018-02-22T09:43:09.484Z,5.10
2018-02-22T09:45:39.552Z,5.40
2018-02-22T09:48:10.684Z,5.50
2018-02-22T09:50:40.666Z,5.50
2018-02-22T09:53:10.746Z,5.30
2018-02-22T09:55:40.885Z,5.30
2018-02-22T09:58:11.710Z,4.90
2018-02-22T10:00:42.511Z,4.40
2018-02-22T10:03:12.909Z,4.40
2018-02-22T10:05:43.077Z,4.20
2018-02-22T10:08:13.135Z,4.20
2018-02-22T10:10:43.129Z,3.90
2018-02-22T10:13:13.193Z,4.10
2018-02-22T10:15:43.240Z,4.20
2018-02-22T10:18:13.342Z,4.50
2018-02-22T10:20:43.694Z,4.40
2018-02-22T10:23:13.824Z,4.20
2018-02-22T10:25:43.831Z,4.20
2018-02-22T10:28:13.894Z,4.20
2018-02-22T10:30:44.542Z,4.40
2018-02-22T10:33:14.739Z,4.50
2018-02-22T10:35:44.858Z,4.70
2018-02-22T10:38:15.675Z,4.90
2018-02-22T10:40:46.467Z,5.20
2018-02-22T10:43:16.614Z,5.20
2018-02-22T10:45:47.003Z,6.20
2018-02-22T10:48:17.171Z,6.20
2018-02-22T10:50:47.960Z,6.20
2018-02-22T10:53:18.157Z,6.10
2018-02-22T10:55:48.209Z,6.30
2018-02-22T10:58:18.236Z,6.30
2018-02-22T11:00:53.208Z,6.40
2018-02-22T11:03:23.527Z,6.20
2018-02-22T11:05:54.338Z,7.10
2018-02-22T11:08:25.127Z,8.00
2018-02-22T11:10:55.224Z,8.00
2018-02-22T11:13:25.265Z,8.20
2018-02-22T11:15:55.608Z,8.30
2018-02-22T11:18:25.634Z,7.70
2018-02-22T11:20:55.743Z,7.60
2018-02-22T11:23:25.931Z,7.30
2018-02-22T11:25:56.019Z,7.70
2018-02-22T11:28:26.998Z,8.30
2018-02-22T11:30:57.448Z,8.20
2018-02-22T11:33:28.383Z,8.40
2018-02-22T11:35:58.700Z,8.40
2018-02-22T11:38:28.825Z,8.30
2018-02-22T11:40:59.188Z,8.00
2018-02-22T11:43:29.968Z,8.70
2018-02-22T11:46:00.032Z,8.70
2018-02-22T11:48:30.073Z,8.80
2018-02-22T11:51:00.850Z,8.70
2018-02-22T11:53:30.854Z,8.70
2018-02-22T11:56:01.283Z,9.10
2018-02-22T11:58:31.326Z,9.20
2018-02-22T12:01:01.411Z,8.90
2018-02-22T12:03:31.463Z,9.00
2018-02-22T12:06:02.377Z,9.10
2018-02-22T12:08:32.435Z,9.00
2018-02-22T12:11:02.937Z,8.70
2018-02-22T12:13:33.148Z,8.40
2018-02-22T12:16:03.366Z,8.10
2018-02-22T12:18:33.560Z,8.40
2018-02-22T12:21:03.757Z,8.50
2018-02-22T12:23:33.971Z,8.70
2018-02-22T12:26:04.467Z,8.70
2018-02-22T12:28:34.835Z,8.40
2018-02-22T12:31:04.984Z,8.20
2018-02-22T12:33:35.111Z,8.40
2018-02-22T12:36:05.222Z,8.10
2018-02-22T12:38:35.290Z,7.50
2018-02-22T12:41:09.316Z,7.00
2018-02-22T12:43:46.670Z,6.70
2018-02-22T12:46:16.883Z,6.90
2018-02-22T12:48:47.024Z,7.50
2018-02-22T12:51:17.154Z,7.90
2018-02-22T12:53:47.815Z,8.20
2018-02-22T12:56:18.014Z,8.40
2018-02-22T12:58:48.929Z,8.30
2018-02-22T13:01:18.986Z,8.30
2018-02-22T13:03:49.797Z,9.10
2018-02-22T13:06:19.878Z,9.10
2018-02-22T13:08:50.234Z,9.10
2018-02-22T13:11:20.377Z,9.10
2018-02-22T13:13:50.588Z,8.60
2018-02-22T13:16:21.394Z,8.80
2018-02-22T13:18:51.673Z,8.70
2018-02-22T13:21:21.852Z,8.50
2018-02-22T13:23:52.182Z,7.40
2018-02-22T13:26:23.423Z,6.50
2018-02-22T13:28:53.551Z,6.00
2018-02-22T13:31:24.526Z,7.10
2018-02-22T13:34:34.821Z,7.10
2018-02-22T13:37:05.961Z,7.40
2018-02-22T13:39:36.422Z,7.70
2018-02-22T13:42:07.400Z,8.50
2018-02-22T13:45:52.472Z,8.50
2018-02-22T13:48:22.704Z,7.30
2018-02-22T13:51:06.762Z,7.70
2018-02-22T13:53:37.025Z,8.10
2018-02-22T13:56:08.010Z,8.00
2018-02-22T13:58:38.234Z,8.00
2018-02-22T14:03:14.770Z,7.80
2018-02-22T14:05:45.233Z,8.00
2018-02-22T14:08:24.798Z,7.80
2018-02-22T14:10:54.817Z,7.90
2018-02-22T14:13:24.958Z,7.80
2018-02-22T14:15:55.486Z,7.80
2018-02-22T14:18:26.430Z,7.70
2018-02-22T14:20:57.343Z,7.70
2018-02-22T14:23:27.347Z,7.60
2018-02-22T14:25:57.459Z,7.50
2018-02-22T14:28:27.584Z,7.30
2018-02-22T14:30:57.610Z,7.50
2018-02-22T14:33:28.028Z,7.30
2018-02-22T14:35:58.213Z,7.30
2018-02-22T14:38:29.112Z,7.30
2018-02-22T14:40:59.264Z,7.30
2018-02-22T14:43:30.039Z,7.10
2018-02-22T14:46:00.166Z,7.10
2018-02-22T14:48:30.514Z,7.40
2018-02-22T14:51:00.522Z,7.50
2018-02-22T14:53:30.541Z,7.50
2018-02-22T14:56:00.532Z,7.50
2018-02-22T14:58:30.905Z,7.20
2018-02-22T15:01:10.042Z,6.60
2018-02-22T15:03:40.210Z,6.20
2018-02-22T15:06:15.809Z,6.30
2018-02-22T15:10:16.127Z,6.40
2018-02-22T15:12:46.154Z,6.30
2018-02-22T15:15:16.722Z,6.30
2018-02-22T15:17:47.431Z,6.20
2018-02-22T15:20:18.231Z,6.10
2018-02-22T15:22:48.305Z,6.10
2018-02-22T15:25:18.434Z,6.00
2018-02-22T15:27:48.730Z,5.80
2018-02-22T15:30:19.198Z,5.50
2018-02-22T15:39:34.166Z,5.40
2018-02-22T15:42:05.935Z,5.20
2018-02-22T15:44:36.110Z,5.20
2018-02-22T15:47:07.226Z,5.00
2018-02-22T15:49:37.260Z,4.90
2018-02-22T15:52:07.350Z,4.70
2018-02-22T15:54:37.442Z,4.60
2018-02-22T15:57:07.787Z,4.60
2018-02-22T15:59:37.815Z,4.60
2018-02-22T16:02:07.910Z,4.60
2018-02-22T16:04:38.299Z,4.60
2018-02-22T16:07:08.351Z,4.70
2018-02-22T16:09:38.396Z,4.60
2018-02-22T16:12:08.654Z,4.70
2018-02-22T16:14:39.462Z,4.60
2018-02-22T16:17:09.534Z,4.50
2018-02-22T16:19:44.717Z,4.50
2018-02-22T16:22:15.279Z,4.40
2018-02-22T16:24:45.702Z,4.40
2018-02-22T16:27:16.568Z,4.40
2018-02-22T16:29:46.607Z,4.40
2018-02-22T16:32:16.643Z,4.30
2018-02-22T16:34:46.770Z,4.30
2018-02-22T16:37:16.902Z,4.20
2018-02-22T16:39:47.411Z,4.10
2018-02-22T16:42:17.470Z,4.00
2018-02-22T16:44:47.531Z,3.90
2018-02-22T16:47:17.568Z,3.80
2018-02-22T16:49:47.970Z,3.80
2018-02-22T16:52:18.060Z,3.70
2018-02-22T16:54:49.371Z,3.70
2018-02-22T16:57:19.372Z,3.70
2018-02-22T16:59:49.432Z,3.70
2018-02-22T17:02:20.246Z,3.50
2018-02-22T17:04:50.683Z,3.50
2018-02-22T17:07:21.427Z,3.40
2018-02-22T17:09:52.333Z,3.40
2018-02-22T17:12:22.403Z,3.40
2018-02-22T17:14:52.433Z,3.40
2018-02-22T17:17:31.797Z,3.30
2018-02-22T17:20:04.147Z,3.30
2018-02-22T17:22:35.008Z,3.30
2018-02-22T17:25:05.022Z,3.20
2018-02-22T17:27:40.255Z,3.20
2018-02-22T17:30:16.663Z,3.20
2018-02-22T17:32:46.693Z,3.20
2018-02-22T17:35:16.942Z,3.10
2018-02-22T17:37:47.283Z,3.10
2018-02-22T17:40:18.029Z,3.20
2018-02-22T17:42:48.237Z,3.10
2018-02-22T17:45:18.446Z,3.20
2018-02-22T17:47:48.599Z,3.20
2018-02-22T17:50:19.041Z,3.00
2018-02-22T17:55:32.287Z,2.90
2018-02-22T17:58:02.879Z,3.00
2018-02-22T18:00:33.164Z,2.90
2018-02-22T18:03:04.260Z,2.90
2018-02-22T18:05:36.187Z,2.90
2018-02-22T18:08:07.500Z,2.80
2018-02-22T18:10:37.765Z,2.70
2018-02-22T18:13:07.791Z,2.70
2018-02-22T18:15:38.075Z,2.70
2018-02-22T18:18:09.331Z,2.70
2018-02-22T18:20:41.919Z,2.70
2018-02-22T18:23:42.388Z,2.60
2018-02-22T18:26:13.188Z,2.60
2018-02-22T18:28:43.793Z,2.60
2018-02-22T18:31:14.127Z,2.60
2018-02-22T18:33:46.890Z,2.50
2018-02-22T18:36:20.000Z,2.50
2018-02-22T18:39:01.538Z,2.30
2018-02-22T18:41:39.443Z,2.30
2018-02-22T18:44:14.744Z,2.30
2018-02-22T18:46:44.910Z,2.30
2018-02-22T18:49:14.922Z,2.30
2018-02-22T18:51:46.411Z,2.30
2018-02-22T18:54:16.660Z,2.30
2018-02-22T18:56:46.787Z,2.30
2018-02-22T18:59:16.967Z,2.30
2018-02-22T19:01:47.439Z,2.20
2018-02-22T19:04:17.785Z,2.10
2018-02-22T19:06:49.909Z,2.00
2018-02-22T19:09:20.259Z,2.00
2018-02-22T19:11:50.890Z,2.00
2018-02-22T19:14:22.010Z,2.00
2018-02-22T19:16:52.226Z,2.10
2018-02-22T19:19:22.320Z,2.00
2018-02-22T19:21:53.027Z,2.00
2018-02-22T19:24:27.070Z,1.90
2018-02-22T19:26:57.090Z,1.90
2018-02-22T19:29:27.209Z,1.90
2018-02-22T19:32:00.245Z,1.90
2018-02-22T19:34:30.609Z,1.80
2018-02-22T19:37:00.771Z,1.80
2018-02-22T19:39:30.816Z,1.80
2018-02-22T19:42:01.112Z,1.70
2018-02-22T19:44:32.148Z,1.70
2018-02-22T19:47:03.683Z,1.70
2018-02-22T19:49:34.231Z,1.70
2018-02-22T19:52:04.323Z,1.70
2018-02-22T19:54:34.906Z,1.70
2018-02-22T19:57:05.271Z,1.70
2018-02-22T19:59:35.645Z,1.60
2018-02-22T20:02:05.655Z,1.70
2018-02-22T20:04:37.185Z,1.80
2018-02-22T20:07:07.330Z,1.70
2018-02-22T20:09:37.596Z,1.70
2018-02-22T20:12:07.673Z,1.60
2018-02-22T20:14:38.438Z,1.50
2018-02-22T20:17:08.763Z,1.40
2018-02-22T20:19:39.190Z,1.30
2018-02-22T20:22:09.206Z,1.30
2018-02-22T20:24:39.516Z,1.40
2018-02-22T20:27:09.939Z,1.40
2018-02-22T20:29:40.814Z,1.30
2018-02-22T20:32:11.075Z,1.30
2018-02-22T20:34:41.698Z,1.30
2018-02-22T20:37:11.780Z,1.30
2018-02-22T20:39:42.022Z,1.20
2018-02-22T20:42:12.147Z,1.20
2018-02-22T20:44:42.679Z,1.20
2018-02-22T20:47:13.003Z,1.10
2018-02-22T20:49:43.606Z,1.10
2018-02-22T20:52:15.659Z,1.00
2018-02-22T20:54:47.060Z,1.10
2018-02-22T20:57:17.638Z,1.00
2018-02-22T20:59:48.387Z,0.90
2018-02-22T21:02:18.770Z,0.90
2018-02-22T21:04:50.105Z,0.90
2018-02-22T21:07:20.430Z,0.80
2018-02-22T21:09:51.398Z,0.80
2018-02-22T21:12:22.387Z,0.80
2018-02-22T21:14:52.972Z,0.80
2018-02-22T21:17:23.246Z,0.80
2018-02-22T21:19:53.735Z,0.90
2018-02-22T21:22:24.356Z,0.90
2018-02-22T21:24:54.581Z,0.80
2018-02-22T21:27:24.616Z,0.70
2018-02-22T21:29:54.862Z,0.80
2018-02-22T21:32:25.299Z,0.70
2018-02-22T21:34:55.387Z,0.60
2018-02-22T21:37:26.255Z,0.60
2018-02-22T21:39:56.416Z,0.50
2018-02-22T21:42:26.744Z,0.40
2018-02-22T21:44:56.836Z,0.40
2018-02-22T21:47:27.129Z,0.40
2018-02-22T21:49:57.904Z,0.50
2018-02-22T21:52:28.268Z,0.50
2018-02-22T21:54:58.778Z,0.40
2018-02-22T21:57:28.902Z,0.40
2018-02-22T21:59:59.407Z,0.40
2018-02-22T22:02:29.833Z,0.40
2018-02-22T22:05:00.571Z,0.40
2018-02-22T22:07:31.067Z,0.30
2018-02-22T22:10:01.244Z,0.40
2018-02-22T22:12:31.710Z,0.40
2018-02-22T22:15:02.062Z,0.40
2018-02-22T22:17:37.977Z,0.30
2018-02-22T22:20:10.550Z,0.40
2018-02-22T22:22:40.818Z,0.40
2018-02-22T22:25:10.810Z,0.40
2018-02-22T22:27:41.892Z,0.40
2018-02-22T22:30:12.547Z,0.40
2018-02-22T22:32:43.261Z,0.50
2018-02-22T22:35:13.461Z,0.50
2018-02-22T22:37:43.502Z,0.50
2018-02-22T22:40:13.829Z,0.50
2018-02-22T22:42:44.017Z,0.40
2018-02-22T22:45:14.351Z,0.50
2018-02-22T22:47:45.264Z,0.50
2018-02-22T22:50:15.625Z,0.50
2018-02-22T22:52:45.748Z,0.50
2018-02-22T22:55:16.023Z,0.60
2018-02-22T22:57:47.143Z,0.60
2018-02-22T23:00:17.436Z,0.60
2018-02-22T23:02:47.596Z,0.60
2018-02-22T23:05:18.168Z,0.60
2018-02-22T23:07:48.828Z,0.60
2018-02-22T23:10:19.098Z,0.60
2018-02-22T23:12:49.879Z,0.60
2018-02-22T23:15:19.867Z,0.60
2018-02-22T23:17:50.651Z,0.60
2018-02-22T23:20:20.916Z,0.60
2018-02-22T23:22:51.775Z,0.50
2018-02-22T23:25:21.948Z,0.50
2018-02-22T23:27:53.871Z,0.50
2018-02-22T23:30:24.063Z,0.40
2018-02-22T23:32:54.301Z,0.40
2018-02-22T23:35:24.619Z,0.30
2018-02-22T23:37:54.854Z,0.40
2018-02-22T23:40:25.101Z,0.30
2018-02-22T23:42:55.451Z,0.30
2018-02-22T23:45:26.724Z,0.30
2018-02-22T23:47:56.840Z,0.20
2018-02-22T23:50:27.575Z,0.30
2018-02-22T23:52:58.251Z,0.30
2018-02-22T23:55:28.671Z,0.20
2018-02-22T23:57:59.534Z,0.10
